createdAt,value
2019-02-24T00:00:43.339Z,29.13
2019-02-24T00:03:09.584Z,31.07
2019-02-24T00:05:37.001Z,29.10
2019-02-24T00:08:03.448Z,28.33
2019-02-24T00:10:29.590Z,29.73
2019-02-24T00:12:55.815Z,27.80
2019-02-24T00:15:22.032Z,32.03
2019-02-24T00:17:48.117Z,29.90
2019-02-24T00:20:18.298Z,28.40
2019-02-24T00:22:44.541Z,27.37
2019-02-24T00:25:15.417Z,30.00
2019-02-24T00:27:41.821Z,31.77
2019-02-24T00:30:16.714Z,30.10
2019-02-24T00:32:42.986Z,28.73
2019-02-24T00:35:14.604Z,29.63
2019-02-24T00:37:41.068Z,29.50
2019-02-24T00:40:07.372Z,29.70
2019-02-24T00:42:33.564Z,29.07
2019-02-24T00:44:59.889Z,32.03
2019-02-24T00:47:26.206Z,30.33
2019-02-24T00:49:54.044Z,29.53
2019-02-24T00:52:20.530Z,28.90
2019-02-24T00:54:46.984Z,31.67
2019-02-24T00:57:13.304Z,30.37
2019-02-24T00:59:39.524Z,32.20
2019-02-24T01:02:05.833Z,31.80
2019-02-24T01:04:31.983Z,34.10
2019-02-24T01:06:58.259Z,29.37
2019-02-24T01:09:24.736Z,29.33
2019-02-24T01:11:51.028Z,33.10
2019-02-24T01:14:17.287Z,31.57
2019-02-24T01:16:43.558Z,31.67
2019-02-24T01:19:09.761Z,30.93
2019-02-24T01:21:36.192Z,32.17
2019-02-24T01:24:08.568Z,32.17
2019-02-24T01:26:34.953Z,30.17
2019-02-24T01:29:09.120Z,32.60
2019-02-24T01:31:35.479Z,31.73
2019-02-24T01:34:02.254Z,29.23
2019-02-24T01:36:29.731Z,30.57
2019-02-24T01:38:55.951Z,31.70
2019-02-24T01:41:22.259Z,30.47
2019-02-24T01:43:48.586Z,29.77
2019-02-24T01:46:14.925Z,31.57
2019-02-24T01:48:41.092Z,30.90
2019-02-24T01:51:07.345Z,31.40
2019-02-24T01:53:33.615Z,32.63
2019-02-24T01:55:59.902Z,30.30
2019-02-24T01:58:34.631Z,32.07
2019-02-24T02:00:54.581Z,30.47
2019-02-24T02:03:20.912Z,32.63
2019-02-24T02:05:47.145Z,29.03
2019-02-24T02:08:13.302Z,28.50
2019-02-24T02:10:39.550Z,31.53
2019-02-24T02:13:16.070Z,30.17
2019-02-24T02:15:42.230Z,29.23
2019-02-24T02:18:08.464Z,30.83
2019-02-24T02:20:34.756Z,30.27
2019-02-24T02:23:08.500Z,33.00
2019-02-24T02:25:34.920Z,31.20
2019-02-24T02:28:06.291Z,30.73
2019-02-24T02:30:32.564Z,30.53
2019-02-24T02:32:58.753Z,31.03
2019-02-24T02:35:24.883Z,31.10
2019-02-24T02:37:50.984Z,29.67
2019-02-24T02:40:20.535Z,29.47
2019-02-24T02:42:46.658Z,32.37
2019-02-24T02:45:12.875Z,32.50
2019-02-24T02:47:39.325Z,29.63
2019-02-24T02:50:05.664Z,28.63
2019-02-24T02:52:31.960Z,30.00
2019-02-24T02:54:59.846Z,29.77
2019-02-24T02:57:25.939Z,30.43
2019-02-24T02:59:52.176Z,33.17
2019-02-24T03:02:24.416Z,31.03
2019-02-24T03:04:46.662Z,31.97
2019-02-24T03:07:20.635Z,32.10
2019-02-24T03:09:49.565Z,30.77
2019-02-24T03:12:15.802Z,30.70
2019-02-24T03:14:41.908Z,29.17
2019-02-24T03:17:08.320Z,31.47
2019-02-24T03:19:34.404Z,29.70
2019-02-24T03:24:40.237Z,30.60
2019-02-24T03:27:06.569Z,31.37
2019-02-24T03:29:32.913Z,31.10
2019-02-24T03:31:59.323Z,30.07
2019-02-24T03:34:25.673Z,30.93
2019-02-24T03:36:51.994Z,30.80
2019-02-24T03:39:19.426Z,32.60
2019-02-24T03:41:45.546Z,30.27
2019-02-24T03:44:11.782Z,31.00
2019-02-24T03:46:37.914Z,34.60
2019-02-24T03:49:04.138Z,32.07
2019-02-24T03:51:30.256Z,32.20
2019-02-24T03:53:56.834Z,33.70
2019-02-24T03:56:23.091Z,33.37
2019-02-24T03:58:49.306Z,34.70
2019-02-24T04:01:15.696Z,33.53
2019-02-24T04:03:41.894Z,34.00
2019-02-24T04:06:07.998Z,33.97
2019-02-24T04:08:34.108Z,35.23
2019-02-24T04:11:00.235Z,36.97
2019-02-24T04:13:26.413Z,35.20
2019-02-24T04:15:52.701Z,35.40
2019-02-24T04:18:18.953Z,33.43
2019-02-24T04:20:45.126Z,33.53
2019-02-24T04:23:11.547Z,34.33
2019-02-24T04:25:37.760Z,35.07
2019-02-24T04:28:03.899Z,34.63
2019-02-24T04:30:30.137Z,34.03
2019-02-24T04:32:56.252Z,32.73
2019-02-24T04:35:22.374Z,34.37
2019-02-24T04:37:48.510Z,36.27
2019-02-24T04:40:14.741Z,35.50
2019-02-24T04:42:40.997Z,36.67
2019-02-24T04:45:07.260Z,35.13
2019-02-24T04:47:34.466Z,34.17
2019-02-24T04:50:00.712Z,34.93
2019-02-24T04:52:26.981Z,34.83
2019-02-24T04:54:53.303Z,37.90
2019-02-24T04:57:19.513Z,35.97
2019-02-24T04:59:45.585Z,37.67
2019-02-24T05:02:11.787Z,34.87
2019-02-24T05:04:37.963Z,36.97
2019-02-24T05:07:04.123Z,35.23
2019-02-24T05:09:30.398Z,34.07
2019-02-24T05:11:56.507Z,35.90
2019-02-24T05:14:22.600Z,33.23
2019-02-24T05:16:48.891Z,36.97
2019-02-24T05:19:15.218Z,36.80
2019-02-24T05:21:41.311Z,37.67
2019-02-24T05:24:07.647Z,35.90
2019-02-24T05:26:34.134Z,38.17
2019-02-24T05:29:00.374Z,37.27
2019-02-24T05:31:26.620Z,39.40
2019-02-24T05:33:52.792Z,37.03
2019-02-24T05:36:19.203Z,37.00
2019-02-24T05:38:45.553Z,35.40
2019-02-24T05:41:11.774Z,36.17
2019-02-24T05:43:37.872Z,36.00
2019-02-24T05:46:04.206Z,35.67
2019-02-24T05:48:30.453Z,36.07
2019-02-24T05:50:56.767Z,35.93
2019-02-24T05:53:22.916Z,35.77
2019-02-24T05:55:49.014Z,39.17
2019-02-24T05:58:15.252Z,37.53
2019-02-24T06:00:41.416Z,37.23
2019-02-24T06:03:07.701Z,35.70
2019-02-24T06:05:33.972Z,36.27
2019-02-24T06:08:01.424Z,37.40
2019-02-24T06:10:27.517Z,35.70
2019-02-24T06:12:53.778Z,35.93
2019-02-24T06:15:19.921Z,37.90
2019-02-24T06:17:46.114Z,35.43
2019-02-24T06:20:12.330Z,37.27
2019-02-24T06:22:38.757Z,38.60
2019-02-24T06:25:04.939Z,39.13
2019-02-24T06:27:31.125Z,40.27
2019-02-24T06:30:04.534Z,38.23
2019-02-24T06:32:26.266Z,38.00
2019-02-24T06:34:52.587Z,40.63
2019-02-24T06:37:18.722Z,40.53
2019-02-24T06:39:44.865Z,36.97
2019-02-24T06:42:11.057Z,36.90
2019-02-24T06:44:37.136Z,38.13
2019-02-24T06:47:03.618Z,39.83
2019-02-24T06:49:29.715Z,38.77
2019-02-24T06:51:57.012Z,39.93
2019-02-24T06:54:23.116Z,35.40
2019-02-24T06:56:49.519Z,38.67
2019-02-24T06:59:15.661Z,38.70
2019-02-24T07:01:41.861Z,38.13
2019-02-24T07:04:08.040Z,38.47
2019-02-24T07:06:34.323Z,39.50
2019-02-24T07:09:00.513Z,38.67
2019-02-24T07:11:26.646Z,38.33
2019-02-24T07:13:52.848Z,38.83
2019-02-24T07:16:19.199Z,37.70
2019-02-24T07:18:45.320Z,35.03
2019-02-24T07:21:11.462Z,36.27
2019-02-24T07:23:37.582Z,37.13
2019-02-24T07:26:03.915Z,32.50
2019-02-24T07:28:30.116Z,31.53
2019-02-24T07:30:56.294Z,31.20
2019-02-24T07:33:22.541Z,29.80
2019-02-24T07:35:49.033Z,28.63
2019-02-24T07:38:15.377Z,27.53
2019-02-24T07:40:41.493Z,27.97
2019-02-24T07:43:07.612Z,27.27
2019-02-24T07:45:33.939Z,28.70
2019-02-24T07:48:00.472Z,27.80
2019-02-24T07:50:26.639Z,28.23
2019-02-24T07:52:52.893Z,28.97
2019-02-24T07:55:19.087Z,27.53
2019-02-24T07:57:45.313Z,36.73
2019-02-24T08:00:11.645Z,28.97
2019-02-24T08:02:37.928Z,31.27
2019-02-24T08:05:05.998Z,29.03
2019-02-24T08:07:32.245Z,26.47
2019-02-24T08:09:58.554Z,25.73
2019-02-24T08:12:24.801Z,26.63
2019-02-24T08:14:50.900Z,30.07
2019-02-24T08:17:17.036Z,25.43
2019-02-24T08:19:43.265Z,23.93
2019-02-24T08:22:09.374Z,24.80
2019-02-24T08:24:35.612Z,26.90
2019-02-24T08:27:01.876Z,24.27
2019-02-24T08:29:29.516Z,24.90
2019-02-24T08:31:56.212Z,24.43
2019-02-24T08:34:22.323Z,25.00
2019-02-24T08:36:48.693Z,25.13
2019-02-24T08:39:14.806Z,25.73
2019-02-24T08:41:40.948Z,24.07
2019-02-24T08:44:07.258Z,25.43
2019-02-24T08:46:33.442Z,24.77
2019-02-24T08:48:59.753Z,27.23
2019-02-24T08:51:26.057Z,26.00
2019-02-24T08:53:52.182Z,27.47
2019-02-24T08:56:18.412Z,24.60
2019-02-24T08:58:44.720Z,25.00
2019-02-24T09:01:11.032Z,24.27
2019-02-24T09:03:37.253Z,24.70
2019-02-24T09:06:03.554Z,24.60
2019-02-24T09:08:29.701Z,23.80
2019-02-24T09:10:55.837Z,21.27
2019-02-24T09:13:22.174Z,24.53
2019-02-24T09:15:48.481Z,23.23
2019-02-24T09:18:14.854Z,24.00
2019-02-24T09:20:41.210Z,24.40
2019-02-24T09:23:16.848Z,23.33
2019-02-24T09:25:58.992Z,22.80
2019-02-24T09:28:31.209Z,25.57
2019-02-24T09:31:00.761Z,27.30
2019-02-24T09:33:25.554Z,24.43
2019-02-24T09:35:51.924Z,25.03
2019-02-24T09:38:19.411Z,23.40
2019-02-24T09:40:45.643Z,26.90
2019-02-24T09:43:11.916Z,22.70
2019-02-24T09:45:38.161Z,23.77
2019-02-24T09:48:04.433Z,22.63
2019-02-24T09:50:30.661Z,24.33
2019-02-24T09:52:56.894Z,24.93
2019-02-24T09:55:23.063Z,23.90
2019-02-24T09:57:49.269Z,24.73
2019-02-24T10:00:15.687Z,22.70
2019-02-24T10:02:42.158Z,22.43
2019-02-24T10:05:08.287Z,22.37
2019-02-24T10:07:34.438Z,27.17
2019-02-24T10:10:00.642Z,22.70
2019-02-24T10:12:27.052Z,20.77
2019-02-24T10:14:53.184Z,22.30
2019-02-24T10:17:19.516Z,20.57
2019-02-24T10:19:45.858Z,22.87
2019-02-24T10:22:12.188Z,20.83
2019-02-24T10:24:38.526Z,22.30
2019-02-24T10:27:04.855Z,20.90
2019-02-24T10:29:31.109Z,22.40
2019-02-24T10:31:57.431Z,18.63
2019-02-24T10:34:23.687Z,22.30
2019-02-24T10:36:49.919Z,22.20
2019-02-24T10:39:16.037Z,21.40
2019-02-24T10:41:42.257Z,18.57
2019-02-24T10:44:08.381Z,19.77
2019-02-24T10:46:34.583Z,21.43
2019-02-24T10:49:03.367Z,21.37
2019-02-24T10:51:28.849Z,22.13
2019-02-24T10:53:55.238Z,23.63
2019-02-24T10:56:21.591Z,21.93
2019-02-24T10:58:47.808Z,22.03
2019-02-24T11:01:14.162Z,21.70
2019-02-24T11:03:40.416Z,20.10
2019-02-24T11:06:06.753Z,21.13
2019-02-24T11:08:33.128Z,22.27
2019-02-24T11:10:59.283Z,20.37
2019-02-24T11:13:25.668Z,25.53
2019-02-24T11:15:52.213Z,22.37
2019-02-24T11:18:18.814Z,24.70
2019-02-24T11:20:45.143Z,24.50
2019-02-24T11:23:11.442Z,23.93
2019-02-24T11:25:38.809Z,22.10
2019-02-24T11:28:05.228Z,22.93
2019-02-24T11:30:31.612Z,19.40
2019-02-24T11:32:58.008Z,20.03
2019-02-24T11:35:24.319Z,20.90
2019-02-24T11:37:50.579Z,19.13
2019-02-24T11:40:17.375Z,21.00
2019-02-24T11:42:43.752Z,19.00
2019-02-24T11:45:10.134Z,18.07
2019-02-24T11:47:36.419Z,18.87
2019-02-24T11:50:05.323Z,18.17
2019-02-24T11:52:32.585Z,20.17
2019-02-24T11:54:58.933Z,19.20
2019-02-24T11:57:25.473Z,17.00
2019-02-24T11:59:51.529Z,16.53
2019-02-24T12:02:17.758Z,16.40
2019-02-24T12:04:44.019Z,17.57
2019-02-24T12:07:10.326Z,17.97
2019-02-24T12:09:36.590Z,19.47
2019-02-24T12:12:06.173Z,18.80
2019-02-24T12:14:32.380Z,17.97
2019-02-24T12:16:58.736Z,18.90
2019-02-24T12:19:25.194Z,19.47
2019-02-24T12:21:51.644Z,18.50
2019-02-24T12:24:17.841Z,17.80
2019-02-24T12:26:47.684Z,17.47
2019-02-24T12:29:13.837Z,18.83
2019-02-24T12:31:45.400Z,16.33
2019-02-24T12:34:11.586Z,15.80
2019-02-24T12:36:37.997Z,15.73
2019-02-24T12:39:05.118Z,17.30
2019-02-24T12:41:33.222Z,17.37
2019-02-24T12:43:59.363Z,19.00
2019-02-24T12:46:25.690Z,19.50
2019-02-24T12:48:52.150Z,20.10
2019-02-24T12:51:18.466Z,20.50
2019-02-24T12:53:45.121Z,19.17
2019-02-24T12:56:11.483Z,19.60
2019-02-24T12:58:37.719Z,20.73
2019-02-24T13:01:06.550Z,19.63
2019-02-24T13:03:32.919Z,19.80
2019-02-24T13:05:59.214Z,18.30
2019-02-24T13:08:25.690Z,18.33
2019-02-24T13:10:51.894Z,18.20
2019-02-24T13:13:18.228Z,17.20
2019-02-24T13:15:46.287Z,17.13
2019-02-24T13:18:15.778Z,18.03
2019-02-24T13:20:42.117Z,17.27
2019-02-24T13:23:08.985Z,16.87
2019-02-24T13:25:36.431Z,17.27
2019-02-24T13:28:05.920Z,18.67
2019-02-24T13:30:32.158Z,17.33
2019-02-24T13:32:58.417Z,17.90
2019-02-24T13:35:25.018Z,16.40
2019-02-24T13:37:51.167Z,15.30
2019-02-24T13:40:17.605Z,18.00
2019-02-24T13:42:43.861Z,17.60
2019-02-24T13:45:17.539Z,17.47
2019-02-24T13:47:43.980Z,17.77
2019-02-24T13:50:13.855Z,16.77
2019-02-24T13:52:40.291Z,15.70
2019-02-24T13:55:09.233Z,17.03
2019-02-24T13:57:35.392Z,17.10
2019-02-24T14:00:12.392Z,18.27
2019-02-24T14:02:40.530Z,16.60
2019-02-24T14:05:08.384Z,16.27
2019-02-24T14:07:34.805Z,16.73
2019-02-24T14:10:09.434Z,15.73
2019-02-24T14:12:35.776Z,16.53
2019-02-24T14:15:09.982Z,14.93
2019-02-24T14:17:37.274Z,16.27
2019-02-24T14:20:09.741Z,16.83
2019-02-24T14:22:36.067Z,15.67
2019-02-24T14:25:07.773Z,16.73
2019-02-24T14:27:33.937Z,16.73
2019-02-24T14:30:00.291Z,16.87
2019-02-24T14:32:32.832Z,16.20
2019-02-24T14:34:55.948Z,16.63
2019-02-24T14:37:22.370Z,16.87
2019-02-24T14:39:48.651Z,17.57
2019-02-24T14:42:18.226Z,18.23
2019-02-24T14:44:44.718Z,16.37
2019-02-24T14:47:10.959Z,16.93
2019-02-24T14:49:37.236Z,17.47
2019-02-24T14:52:03.839Z,17.53
2019-02-24T14:54:30.208Z,18.13
2019-02-24T14:56:56.444Z,20.27
2019-02-24T14:59:22.677Z,17.87
2019-02-24T15:01:48.826Z,18.13
2019-02-24T15:04:14.899Z,17.30
2019-02-24T15:06:41.275Z,17.90
2019-02-24T15:09:08.271Z,17.30
2019-02-24T15:11:34.898Z,17.70
2019-02-24T15:14:01.106Z,20.10
2019-02-24T15:16:27.401Z,18.07
2019-02-24T15:18:53.643Z,16.80
2019-02-24T15:21:20.412Z,21.43
2019-02-24T15:23:46.710Z,20.53
2019-02-24T15:26:13.068Z,18.10
2019-02-24T15:28:39.397Z,16.60
2019-02-24T15:31:07.724Z,15.60
2019-02-24T15:33:33.986Z,16.70
2019-02-24T15:36:00.300Z,15.77
2019-02-24T15:38:26.620Z,15.83
2019-02-24T15:40:52.889Z,14.33
2019-02-24T15:43:19.089Z,15.57
2019-02-24T15:45:45.422Z,16.10
2019-02-24T15:48:11.758Z,16.63
2019-02-24T15:50:37.994Z,16.33
2019-02-24T15:53:04.383Z,15.83
2019-02-24T15:55:30.716Z,15.90
2019-02-24T15:57:57.135Z,17.57
2019-02-24T16:00:24.068Z,16.37
2019-02-24T16:02:50.391Z,19.30
2019-02-24T16:05:16.627Z,18.20
2019-02-24T16:07:42.995Z,16.93
2019-02-24T16:10:15.822Z,16.43
2019-02-24T16:12:42.138Z,15.23
2019-02-24T16:15:11.620Z,16.63
2019-02-24T16:17:37.966Z,17.70
2019-02-24T16:20:07.944Z,17.57
2019-02-24T16:22:34.298Z,16.60
2019-02-24T16:25:00.531Z,17.77
2019-02-24T16:27:26.781Z,17.53
2019-02-24T16:29:53.127Z,18.13
2019-02-24T16:32:19.301Z,21.00
2019-02-24T16:34:46.562Z,16.30
2019-02-24T16:37:12.950Z,17.43
2019-02-24T16:39:39.216Z,16.53
2019-02-24T16:42:06.717Z,17.17
2019-02-24T16:44:33.092Z,18.47
2019-02-24T16:46:59.630Z,20.23
2019-02-24T16:49:25.743Z,17.97
2019-02-24T16:51:51.982Z,17.03
2019-02-24T16:54:18.351Z,18.07
2019-02-24T16:56:44.587Z,16.70
2019-02-24T16:59:10.932Z,17.63
2019-02-24T17:01:37.063Z,16.90
2019-02-24T17:04:03.543Z,18.33
2019-02-24T17:06:29.824Z,23.03
2019-02-24T17:09:02.543Z,19.20
2019-02-24T17:11:24.265Z,19.27
2019-02-24T17:13:50.857Z,21.70
2019-02-24T17:16:17.141Z,18.13
2019-02-24T17:18:43.559Z,22.70
2019-02-24T17:21:09.801Z,23.17
2019-02-24T17:23:36.128Z,22.37
2019-02-24T17:26:02.693Z,24.63
2019-02-24T17:28:28.968Z,21.40
2019-02-24T17:30:55.275Z,19.13
2019-02-24T17:33:29.796Z,21.17
2019-02-24T17:35:49.962Z,17.23
2019-02-24T17:38:16.341Z,20.47
2019-02-24T17:40:42.723Z,19.90
2019-02-24T17:43:08.964Z,18.77
2019-02-24T17:45:35.246Z,20.10
2019-02-24T17:48:01.581Z,21.77
2019-02-24T17:50:28.151Z,20.70
2019-02-24T17:52:54.593Z,21.57
2019-02-24T17:55:21.152Z,18.17
2019-02-24T17:57:47.567Z,23.33
2019-02-24T18:00:25.950Z,22.90
2019-02-24T18:02:52.273Z,21.13
2019-02-24T18:05:18.638Z,27.10
2019-02-24T18:07:45.123Z,24.57
2019-02-24T18:10:11.549Z,25.83
2019-02-24T18:12:37.799Z,23.40
2019-02-24T18:15:08.490Z,23.13
2019-02-24T18:17:34.849Z,21.63
2019-02-24T18:20:01.311Z,24.00
2019-02-24T18:22:27.658Z,24.73
2019-02-24T18:25:02.716Z,24.90
2019-02-24T18:27:23.834Z,25.67
2019-02-24T18:29:51.148Z,23.37
2019-02-24T18:32:17.622Z,24.30
2019-02-24T18:34:44.164Z,24.07
2019-02-24T18:37:10.571Z,27.70
2019-02-24T18:39:36.907Z,24.30
2019-02-24T18:42:05.010Z,22.30
2019-02-24T18:44:31.386Z,25.77
2019-02-24T18:46:57.605Z,23.50
2019-02-24T18:49:25.771Z,23.27
2019-02-24T18:51:52.076Z,21.97
2019-02-24T18:54:18.430Z,26.23
2019-02-24T18:56:44.747Z,34.07
2019-02-24T18:59:11.105Z,39.43
2019-02-24T19:01:37.336Z,36.93
2019-02-24T19:04:03.680Z,34.00
2019-02-24T19:06:38.768Z,55.10
2019-02-24T19:08:58.278Z,46.23
2019-02-24T19:11:24.646Z,32.17
2019-02-24T19:13:50.926Z,44.73
2019-02-24T19:16:17.146Z,36.27
2019-02-24T19:18:44.812Z,35.50
2019-02-24T19:21:12.285Z,38.23
2019-02-24T19:23:38.573Z,35.83
2019-02-24T19:26:04.899Z,36.47
2019-02-24T19:28:32.248Z,39.33
2019-02-24T19:30:58.559Z,37.57
2019-02-24T19:33:24.895Z,38.83
2019-02-24T19:35:51.431Z,38.93
2019-02-24T19:38:17.646Z,39.33
2019-02-24T19:40:44.108Z,35.77
2019-02-24T19:43:10.396Z,34.73
2019-02-24T19:45:36.896Z,36.13
2019-02-24T19:48:03.180Z,33.53
2019-02-24T19:50:29.436Z,33.87
2019-02-24T19:52:55.710Z,37.10
2019-02-24T19:55:21.935Z,35.93
2019-02-24T19:57:48.396Z,35.73
2019-02-24T20:00:22.730Z,39.17
2019-02-24T20:02:49.056Z,36.73
2019-02-24T20:05:15.460Z,37.70
2019-02-24T20:07:41.777Z,46.17
2019-02-24T20:10:10.745Z,40.53
2019-02-24T20:12:37.057Z,42.33
2019-02-24T20:15:07.086Z,42.67
2019-02-24T20:17:33.497Z,39.63
2019-02-24T20:19:59.819Z,40.63
2019-02-24T20:22:26.098Z,41.93
2019-02-24T20:24:52.426Z,41.50
2019-02-24T20:27:18.741Z,41.80
2019-02-24T20:29:44.880Z,36.50
2019-02-24T20:32:11.338Z,40.07
2019-02-24T20:34:37.460Z,39.90
2019-02-24T20:37:04.008Z,38.93
2019-02-24T20:39:30.274Z,42.03
2019-02-24T20:41:56.567Z,38.30
2019-02-24T20:44:22.760Z,41.20
2019-02-24T20:46:49.052Z,39.33
2019-02-24T20:49:15.388Z,37.60
2019-02-24T20:51:42.722Z,42.93
2019-02-24T20:54:18.289Z,39.70
2019-02-24T20:56:44.800Z,43.67
2019-02-24T20:59:19.272Z,44.43
2019-02-24T21:01:45.838Z,43.90
2019-02-24T21:04:17.830Z,40.57
2019-02-24T21:06:44.102Z,40.50
2019-02-24T21:09:16.803Z,37.30
2019-02-24T21:11:43.045Z,35.63
2019-02-24T21:14:09.429Z,41.63
2019-02-24T21:16:35.754Z,38.00
2019-02-24T21:19:10.291Z,38.23
2019-02-24T21:21:36.631Z,38.07
2019-02-24T21:24:05.094Z,39.70
2019-02-24T21:26:31.605Z,39.67
2019-02-24T21:28:58.055Z,38.43
2019-02-24T21:31:24.343Z,40.00
2019-02-24T21:36:29.479Z,39.30
2019-02-24T21:38:55.830Z,37.07
2019-02-24T21:41:29.895Z,37.50
2019-02-24T21:43:57.285Z,39.37
2019-02-24T21:46:23.548Z,38.43
2019-02-24T21:48:57.241Z,39.73
2019-02-24T21:51:23.461Z,40.47
2019-02-24T21:53:51.863Z,38.70
2019-02-24T21:56:21.381Z,40.57
2019-02-24T21:58:50.597Z,39.63
2019-02-24T22:01:17.305Z,40.17
2019-02-24T22:03:43.640Z,38.10
2019-02-24T22:06:09.852Z,40.73
2019-02-24T22:08:36.096Z,40.03
2019-02-24T22:11:05.299Z,41.03
2019-02-24T22:13:31.565Z,39.80
2019-02-24T22:15:57.817Z,37.77
2019-02-24T22:18:24.240Z,37.90
2019-02-24T22:20:50.370Z,33.03
2019-02-24T22:23:16.751Z,36.50
2019-02-24T22:25:43.077Z,37.17
2019-02-24T22:28:09.379Z,43.53
2019-02-24T22:30:35.734Z,40.50
2019-02-24T22:33:02.056Z,37.37
2019-02-24T22:35:28.407Z,38.33
2019-02-24T22:37:54.696Z,39.57
2019-02-24T22:40:21.015Z,42.57
2019-02-24T22:42:47.136Z,42.40
2019-02-24T22:45:17.026Z,40.37
2019-02-24T22:47:44.045Z,36.73
2019-02-24T22:50:12.177Z,38.60
2019-02-24T22:52:38.414Z,35.90
2019-02-24T22:55:17.699Z,37.77
2019-02-24T22:57:44.017Z,38.03
2019-02-24T23:00:51.335Z,35.07
2019-02-24T23:03:21.185Z,35.70
2019-02-24T23:05:47.757Z,37.47
2019-02-24T23:08:15.444Z,35.60
2019-02-24T23:10:41.926Z,37.93
2019-02-24T23:13:08.369Z,38.43
2019-02-24T23:15:34.787Z,38.50
2019-02-24T23:18:04.673Z,38.53
2019-02-24T23:20:31.405Z,36.53
2019-02-24T23:22:57.886Z,42.03
2019-02-24T23:25:24.053Z,37.67
2019-02-24T23:27:50.462Z,38.53
2019-02-24T23:30:16.817Z,40.17
2019-02-24T23:32:43.243Z,43.27
2019-02-24T23:35:16.574Z,42.33
2019-02-24T23:37:42.826Z,41.53
2019-02-24T23:40:09.181Z,38.83
2019-02-24T23:42:35.411Z,39.63
2019-02-24T23:45:13.568Z,38.67
2019-02-24T23:47:39.772Z,40.53
2019-02-24T23:50:08.058Z,36.57
2019-02-24T23:52:34.151Z,39.73
2019-02-24T23:55:00.312Z,40.47
2019-02-24T23:57:27.618Z,37.90
2019-02-24T23:59:53.754Z,41.03
